Time,TemperatureF,DewpointF,PressureIn,WindDirection,WindDirectionDegrees,WindSpeedMPH,WindSpeedGustMPH,Humidity,HourlyPrecipIn,Conditions,Clouds,dailyrainin,SoftwareType,DateUTC
2013-05-18 00:06:00,68.0,66.0,29.93,ESE,110,2.0,3.0,93,0.00,,,0.00,weatherlink.com 1.10,2013-05-18 05:06:00,
2013-05-18 00:20:00,67.7,66.0,29.93,ENE,75,1.0,3.0,94,0.00,,,0.00,weatherlink.com 1.10,2013-05-18 05:20:00,
2013-05-18 00:35:00,67.5,66.0,29.93,ENE,73,1.0,2.0,94,0.00,,,0.00,weatherlink.com 1.10,2013-05-18 05:35:00,
2013-05-18 00:50:00,67.2,66.0,29.93,ENE,73,0.0,1.0,95,0.00,,,0.00,weatherlink.com 1.10,2013-05-18 05:50:00,
2013-05-18 01:05:00,66.8,65.0,29.93,ENE,73,0.0,1.0,95,0.00,,,0.00,weatherlink.com 1.10,2013-05-18 06:05:00,
2013-05-18 01:20:00,66.6,65.0,29.93,SE,136,1.0,1.0,95,0.00,,,0.00,weatherlink.com 1.10,2013-05-18 06:20:00,
2013-05-18 01:35:00,66.3,65.0,29.93,SE,135,1.0,1.0,95,0.00,,,0.00,weatherlink.com 1.10,2013-05-18 06:35:00,
2013-05-18 01:50:00,65.8,64.0,29.93,SE,135,0.0,1.0,95,0.00,,,0.00,weatherlink.com 1.10,2013-05-18 06:50:00,
2013-05-18 02:05:00,65.6,65.0,29.93,SE,135,0.0,1.0,96,0.00,,,0.00,weatherlink.com 1.10,2013-05-18 07:05:00,
2013-05-18 02:20:00,65.4,64.0,29.93,SE,136,0.0,1.0,96,0.00,,,0.00,weatherlink.com 1.10,2013-05-18 07:20:00,
2013-05-18 02:35:00,65.1,64.0,29.93,WSW,241,0.0,3.0,96,0.00,,,0.00,weatherlink.com 1.10,2013-05-18 07:35:00,
2013-05-18 02:50:00,64.8,64.0,29.94,ESE,105,1.0,1.0,96,0.00,,,0.00,weatherlink.com 1.10,2013-05-18 07:50:00,
2013-05-18 03:05:00,64.7,64.0,29.94,East,95,1.0,2.0,96,0.00,,,0.00,weatherlink.com 1.10,2013-05-18 08:05:00,
2013-05-18 03:20:00,64.5,64.0,29.94,East,95,0.0,1.0,97,0.00,,,0.00,weatherlink.com 1.10,2013-05-18 08:20:00,
2013-05-18 03:35:00,64.2,63.0,29.94,East,94,1.0,1.0,97,0.00,,,0.00,weatherlink.com 1.10,2013-05-18 08:35:00,
2013-05-18 03:50:00,64.2,63.0,29.94,East,91,0.0,2.0,97,0.00,,,0.00,weatherlink.com 1.10,2013-05-18 08:50:00,
2013-05-18 04:05:00,64.2,63.0,29.94,East,84,3.0,3.0,97,0.00,,,0.00,weatherlink.com 1.10,2013-05-18 09:05:00,
2013-05-18 04:21:00,63.9,63.0,29.95,East,86,3.0,3.0,97,0.00,,,0.00,weatherlink.com 1.10,2013-05-18 09:21:00,
2013-05-18 04:36:00,63.9,63.0,29.95,East,82,1.0,3.0,98,0.00,,,0.00,weatherlink.com 1.10,2013-05-18 09:36:00,
2013-05-18 04:51:00,64.0,64.0,29.95,East,82,2.0,2.0,98,0.00,,,0.00,weatherlink.com 1.10,2013-05-18 09:51:00,
2013-05-18 05:06:00,63.9,63.0,29.94,East,92,1.0,1.0,98,0.00,,,0.00,weatherlink.com 1.10,2013-05-18 10:06:00,
2013-05-18 05:21:00,63.9,63.0,29.95,ESE,103,1.0,2.0,98,0.00,,,0.00,weatherlink.com 1.10,2013-05-18 10:21:00,
2013-05-18 05:36:00,63.8,63.0,29.94,ESE,102,1.0,2.0,98,0.00,,,0.00,weatherlink.com 1.10,2013-05-18 10:36:00,
2013-05-18 05:51:00,63.7,63.0,29.94,East,84,0.0,2.0,98,0.00,,,0.00,weatherlink.com 1.10,2013-05-18 10:51:00,
2013-05-18 06:06:00,63.8,63.0,29.95,East,84,1.0,2.0,98,0.01,,,0.01,weatherlink.com 1.10,2013-05-18 11:06:00,
2013-05-18 06:21:00,64.0,64.0,29.95,East,82,3.0,4.0,98,0.01,,,0.01,weatherlink.com 1.10,2013-05-18 11:21:00,
2013-05-18 06:36:00,64.4,64.0,29.95,ENE,63,1.0,4.0,98,0.01,,,0.01,weatherlink.com 1.10,2013-05-18 11:36:00,
2013-05-18 06:51:00,64.9,64.0,29.96,East,91,2.0,2.0,98,0.01,,,0.01,weatherlink.com 1.10,2013-05-18 11:51:00,
2013-05-18 07:06:00,65.9,65.0,29.96,East,91,1.0,1.0,98,0.00,,,0.01,weatherlink.com 1.10,2013-05-18 12:06:00,
2013-05-18 07:21:00,66.7,66.0,29.96,ESE,106,1.0,2.0,97,0.00,,,0.01,weatherlink.com 1.10,2013-05-18 12:21:00,
2013-05-18 07:36:00,67.5,66.0,29.96,SSE,149,0.0,2.0,94,0.00,,,0.01,weatherlink.com 1.10,2013-05-18 12:36:00,
2013-05-18 07:51:00,67.9,66.0,29.96,ESE,109,0.0,3.0,92,0.00,,,0.01,weatherlink.com 1.10,2013-05-18 12:51:00,
2013-05-18 08:06:00,68.2,66.0,29.97,West,267,2.0,3.0,91,0.00,,,0.01,weatherlink.com 1.10,2013-05-18 13:06:00,
2013-05-18 08:21:00,69.4,67.0,29.97,SSW,198,7.0,7.0,91,0.00,,,0.01,weatherlink.com 1.10,2013-05-18 13:21:00,
2013-05-18 08:36:00,70.1,67.0,29.97,East,92,1.0,4.0,88,0.00,,,0.01,weatherlink.com 1.10,2013-05-18 13:36:00,
2013-05-18 08:51:00,70.1,67.0,29.98,SW,217,1.0,4.0,88,0.00,,,0.01,weatherlink.com 1.10,2013-05-18 13:51:00,
2013-05-18 09:06:00,70.1,66.0,29.98,SSW,199,6.0,10.0,87,0.00,,,0.01,weatherlink.com 1.10,2013-05-18 14:06:00,
2013-05-18 09:21:00,71.1,66.0,29.98,SSE,156,2.0,9.0,85,0.00,,,0.01,weatherlink.com 1.10,2013-05-18 14:21:00,
2013-05-18 09:36:00,72.9,68.0,29.97,WSW,243,1.0,4.0,84,0.00,,,0.01,weatherlink.com 1.10,2013-05-18 14:36:00,
2013-05-18 09:51:00,72.7,67.0,29.97,WSW,250,4.0,6.0,81,0.00,,,0.01,weatherlink.com 1.10,2013-05-18 14:51:00,
2013-05-18 10:06:00,73.0,67.0,29.97,SSW,207,7.0,7.0,82,0.00,,,0.01,weatherlink.com 1.10,2013-05-18 15:06:00,
2013-05-18 10:21:00,73.4,67.0,29.97,East,83,8.0,10.0,80,0.00,,,0.01,weatherlink.com 1.10,2013-05-18 15:21:00,
2013-05-18 10:36:00,73.9,67.0,29.97,ESE,110,1.0,6.0,78,0.00,,,0.01,weatherlink.com 1.10,2013-05-18 15:36:00,
2013-05-18 10:51:00,74.9,67.0,29.97,NE,54,2.0,8.0,76,0.00,,,0.01,weatherlink.com 1.10,2013-05-18 15:51:00,
2013-05-18 11:06:00,74.8,67.0,29.97,East,81,6.0,9.0,76,0.00,,,0.01,weatherlink.com 1.10,2013-05-18 16:06:00,
2013-05-18 11:21:00,75.7,67.0,29.96,East,82,8.0,11.0,75,0.00,,,0.01,weatherlink.com 1.10,2013-05-18 16:21:00,
2013-05-18 11:36:00,75.6,67.0,29.96,East,85,3.0,11.0,74,0.00,,,0.01,weatherlink.com 1.10,2013-05-18 16:36:00,
2013-05-18 11:51:00,76.8,67.0,29.96,ENE,63,3.0,9.0,71,0.00,,,0.01,weatherlink.com 1.10,2013-05-18 16:51:00,
2013-05-18 12:06:00,76.1,66.0,29.95,ENE,70,4.0,9.0,70,0.00,,,0.01,weatherlink.com 1.10,2013-05-18 17:06:00,
2013-05-18 12:21:00,77.3,66.0,29.95,East,85,5.0,7.0,68,0.00,,,0.01,weatherlink.com 1.10,2013-05-18 17:21:00,
2013-05-18 12:37:00,78.5,65.0,29.94,SW,222,3.0,7.0,64,0.00,,,0.01,weatherlink.com 1.10,2013-05-18 17:37:00,
2013-05-18 12:52:00,79.2,66.0,29.94,ENE,70,5.0,11.0,64,0.00,,,0.01,weatherlink.com 1.10,2013-05-18 17:52:00,
2013-05-18 13:07:00,80.3,65.0,29.93,East,85,6.0,10.0,60,0.00,,,0.01,weatherlink.com 1.10,2013-05-18 18:07:00,
2013-05-18 13:22:00,79.8,67.0,29.92,ENE,65,13.0,13.0,64,0.00,,,0.01,weatherlink.com 1.10,2013-05-18 18:22:00,
2013-05-18 13:52:00,79.5,66.0,29.91,East,94,5.0,6.0,63,0.00,,,0.01,weatherlink.com 1.10,2013-05-18 18:52:00,
2013-05-18 14:07:00,79.2,65.0,29.91,ESE,108,5.0,10.0,61,0.00,,,0.01,weatherlink.com 1.10,2013-05-18 19:07:00,
2013-05-18 14:22:00,80.3,66.0,29.90,East,96,5.0,10.0,61,0.00,,,0.01,weatherlink.com 1.10,2013-05-18 19:22:00,
2013-05-18 14:37:00,80.7,64.0,29.90,ENE,73,4.0,7.0,58,0.00,,,0.01,weatherlink.com 1.10,2013-05-18 19:37:00,
2013-05-18 14:52:00,80.7,65.0,29.90,WSW,256,1.0,9.0,59,0.00,,,0.01,weatherlink.com 1.10,2013-05-18 19:52:00,
2013-05-18 15:07:00,81.3,64.0,29.90,East,92,2.0,7.0,56,0.00,,,0.01,weatherlink.com 1.10,2013-05-18 20:07:00,
2013-05-18 15:22:00,81.1,64.0,29.90,WSW,237,2.0,8.0,56,0.00,,,0.01,weatherlink.com 1.10,2013-05-18 20:22:00,
2013-05-18 15:37:00,81.6,65.0,29.89,East,92,1.0,9.0,57,0.00,,,0.01,weatherlink.com 1.10,2013-05-18 20:37:00,
2013-05-18 15:52:00,81.7,64.0,29.89,NNW,344,3.0,6.0,55,0.00,,,0.01,weatherlink.com 1.10,2013-05-18 20:52:00,
2013-05-18 16:07:00,81.2,63.0,29.89,East,86,4.0,7.0,55,0.00,,,0.01,weatherlink.com 1.10,2013-05-18 21:07:00,
2013-05-18 16:22:00,81.0,64.0,29.89,South,169,1.0,4.0,56,0.00,,,0.01,weatherlink.com 1.10,2013-05-18 21:22:00,
2013-05-18 16:37:00,80.6,64.0,29.89,ENE,70,5.0,5.0,58,0.00,,,0.01,weatherlink.com 1.10,2013-05-18 21:37:00,
2013-05-18 16:52:00,80.3,64.0,29.89,ESE,110,1.0,5.0,58,0.00,,,0.01,weatherlink.com 1.10,2013-05-18 21:52:00,
2013-05-18 17:07:00,80.8,65.0,29.89,SE,133,1.0,4.0,58,0.00,,,0.01,weatherlink.com 1.10,2013-05-18 22:07:00,
2013-05-18 17:22:00,81.3,64.0,29.88,ESE,103,3.0,6.0,56,0.00,,,0.01,weatherlink.com 1.10,2013-05-18 22:22:00,
2013-05-18 17:37:00,81.6,65.0,29.88,SSW,194,2.0,6.0,57,0.00,,,0.01,weatherlink.com 1.10,2013-05-18 22:37:00,
2013-05-18 17:52:00,81.7,65.0,29.88,ENE,67,3.0,4.0,57,0.00,,,0.01,weatherlink.com 1.10,2013-05-18 22:52:00,
2013-05-18 18:07:00,81.1,64.0,29.88,East,96,3.0,5.0,57,0.00,,,0.01,weatherlink.com 1.10,2013-05-18 23:07:00,
2013-05-18 18:22:00,81.0,64.0,29.87,East,91,3.0,6.0,57,0.00,,,0.01,weatherlink.com 1.10,2013-05-18 23:22:00,
2013-05-18 18:37:00,80.5,65.0,29.87,ESE,104,2.0,4.0,59,0.00,,,0.01,weatherlink.com 1.10,2013-05-18 23:37:00,
2013-05-18 18:52:00,79.9,64.0,29.87,East,90,1.0,4.0,59,0.00,,,0.01,weatherlink.com 1.10,2013-05-18 23:52:00,
2013-05-18 19:07:00,79.6,64.0,29.87,East,90,2.0,3.0,60,0.00,,,0.01,weatherlink.com 1.10,2013-05-19 00:07:00,
2013-05-18 19:22:00,79.3,64.0,29.87,SE,133,0.0,2.0,60,0.00,,,0.01,weatherlink.com 1.10,2013-05-19 00:22:00,
2013-05-18 19:37:00,78.5,65.0,29.87,WSW,248,0.0,3.0,63,0.00,,,0.01,weatherlink.com 1.10,2013-05-19 00:37:00,
2013-05-18 19:52:00,77.5,64.0,29.87,SW,226,0.0,5.0,63,0.00,,,0.01,weatherlink.com 1.10,2013-05-19 00:52:00,
2013-05-18 20:07:00,76.5,64.0,29.87,SE,139,0.0,1.0,65,0.00,,,0.01,weatherlink.com 1.10,2013-05-19 01:07:00,
2013-05-18 20:22:00,75.2,64.0,29.86,SSE,152,0.0,1.0,68,0.00,,,0.01,weatherlink.com 1.10,2013-05-19 01:22:00,
2013-05-18 20:37:00,74.0,64.0,29.86,SSE,153,0.0,1.0,71,0.00,,,0.01,weatherlink.com 1.10,2013-05-19 01:37:00,
2013-05-18 20:52:00,73.1,64.0,29.86,East,97,0.0,2.0,73,0.00,,,0.01,weatherlink.com 1.10,2013-05-19 01:52:00,
2013-05-18 21:07:00,72.7,64.0,29.86,East,97,0.0,0.0,73,0.00,,,0.01,weatherlink.com 1.10,2013-05-19 02:07:00,
2013-05-18 21:22:00,72.0,64.0,29.86,East,98,0.0,0.0,75,0.00,,,0.01,weatherlink.com 1.10,2013-05-19 02:22:00,
2013-05-18 21:37:00,71.6,64.0,29.86,East,98,0.0,0.0,76,0.00,,,0.01,weatherlink.com 1.10,2013-05-19 02:37:00,
2013-05-18 21:52:00,70.7,64.0,29.86,East,84,3.0,3.0,78,0.00,,,0.01,weatherlink.com 1.10,2013-05-19 02:52:00,
2013-05-18 22:07:00,69.3,64.0,29.86,East,84,1.0,2.0,82,0.00,,,0.01,weatherlink.com 1.10,2013-05-19 03:07:00,
2013-05-18 22:22:00,70.5,64.0,29.85,East,82,3.0,3.0,79,0.00,,,0.01,weatherlink.com 1.10,2013-05-19 03:22:00,
2013-05-18 22:37:00,70.5,64.0,29.85,ESE,102,0.0,2.0,79,0.00,,,0.01,weatherlink.com 1.10,2013-05-19 03:37:00,
2013-05-18 22:52:00,70.2,64.0,29.85,East,99,1.0,3.0,81,0.00,,,0.01,weatherlink.com 1.10,2013-05-19 03:52:00,
2013-05-18 23:07:00,69.5,64.0,29.85,East,84,0.0,1.0,82,0.00,,,0.01,weatherlink.com 1.10,2013-05-19 04:07:00,
2013-05-18 23:22:00,69.3,64.0,29.85,East,82,2.0,3.0,83,0.00,,,0.01,weatherlink.com 1.10,2013-05-19 04:22:00,
2013-05-18 23:37:00,69.4,64.0,29.87,East,94,1.0,2.0,83,0.00,,,0.01,weatherlink.com 1.10,2013-05-19 04:37:00,
2013-05-18 23:53:00,68.5,64.0,29.86,East,100,2.0,2.0,85,0.00,,,0.01,weatherlink.com 1.10,2013-05-19 04:53:00,